Terminal Aerodrome Forecast
Issued by NWS

Home | Current Version | Previous Version | Text Only | Print | Product List | Glossary On
Versions: 1 2 3 4 5 6 7 8 9 10 11 12 13 14 15 16 17 18 19
000
FTUS43 KDMX 211136
TAFMCW
TAF
KMCW 211136Z 2112/2212 22005KT 4SM -RA BR VCSH OVC090
     FM211300 31012KT P6SM VCSH BKN080 OVC120
     FM211700 33019G27KT P6SM FEW050 SCT120
     FM220100 33012KT P6SM SKC=

USA.gov is the U.S. government's official web portal to all federal, state and local government web resources and services.